Portada
METAR-TAF:

METAR-TAF

Aeropuertos :

Pratica Di Mare, Italia

latitud: 41-39N, longitud: 012-27E, altitud: 6 m

Observación

El informe se hizo hace 48 minutos, a las 06:55 UTC
Viento 7 kt del norte-noreste
Temperatura 10°C
Humedad 76%
Presión 1016 hPa
Visibilidad 10 km o más
Nubes dispersas a una altura de 3000 ft
Cielo nuboso a una altura de 7000 ft

METAR: LIRE 160655Z 03007KT 9999 SCT030 BKN070 10/06 Q1016 RMK OVC VIS MIN 9999 WIND THR13 /////KT WIND THR31 /////KT BLU

Hora: 09:43 (07:43 UTC)

Pronóstico

El informe se hizo hace 2 horas y 43 minutos, a las 05:00 UTC
Pronóstico válido del 16 a las 06 UTC al 16 a las 15 UTC
Viento 8 kt del este-noreste
Visibilidad 10 km o más
Nubes dispersas a una altura de 2000 ft
Nubes dispersas a una altura de 5000 ft

TAF: LIRE 160500Z 1606/1615 06008KT 9999 SCT020 SCT050

Observaciones y pronósticos meteorológicos de más de 4000 aeropuertos (mensajes METAR y TAF).

Los puntos amarillos y rojos representan las estaciones disponibles.

Ponga el ratón en el punto deseado para ver el nombre de la estación.

Haga clic para ver las observaciones y los pronósticos meteorológicos.

Para cambiar el mapa : haga clic en los botones verdes con una cruz de color negro para hacer un zoom, en el botón verde con un guión para alejar o en las flechas verdes para mapas adyacentes.


METAR-TAF: